createdAt,value
2022-07-31T00:00:45.985Z,100562.09
2022-07-31T00:03:15.348Z,100560.25
2022-07-31T00:05:43.335Z,100556.91
2022-07-31T00:08:11.659Z,100553.28
2022-07-31T00:10:39.725Z,100542.97
2022-07-31T00:13:07.991Z,100548.09
2022-07-31T00:15:39.790Z,100552.56
2022-07-31T00:18:08.729Z,100551.59
2022-07-31T00:20:36.845Z,100548.66
2022-07-31T00:23:05.151Z,100556.97
2022-07-31T00:25:34.273Z,100554.72
2022-07-31T00:28:02.439Z,100549.63
2022-07-31T00:30:30.943Z,100546.28
2022-07-31T00:33:00.213Z,100539.31
2022-07-31T00:35:28.315Z,100548.47
2022-07-31T00:38:18.239Z,100543.47
2022-07-31T00:40:48.826Z,100544.41
2022-07-31T00:43:18.363Z,100542.88
2022-07-31T00:45:47.303Z,100543.13
2022-07-31T00:48:22.567Z,100544.31
2022-07-31T00:50:51.361Z,100557.66
2022-07-31T00:53:19.263Z,100544.41
2022-07-31T00:55:51.396Z,100546.59
2022-07-31T00:58:20.391Z,100546.00
2022-07-31T01:00:48.567Z,100545.25
2022-07-31T01:03:16.566Z,100539.59
2022-07-31T01:05:45.989Z,100541.69
2022-07-31T01:08:14.002Z,100543.28
2022-07-31T01:10:53.209Z,100545.50
2022-07-31T01:13:28.156Z,100550.09
2022-07-31T01:15:59.194Z,100544.44
2022-07-31T01:18:31.207Z,100559.50
2022-07-31T01:21:04.747Z,100553.59
2022-07-31T01:23:51.043Z,100544.50
2022-07-31T01:26:43.135Z,100539.34
2022-07-31T01:29:25.880Z,100547.72
2022-07-31T01:32:02.083Z,100542.44
2022-07-31T01:34:37.916Z,100538.94
2022-07-31T01:37:15.002Z,100539.28
2022-07-31T01:39:47.940Z,100538.53
2022-07-31T01:42:19.490Z,100534.06
2022-07-31T01:44:54.242Z,100529.78
2022-07-31T01:47:26.262Z,100526.16
2022-07-31T01:49:56.972Z,100536.31
2022-07-31T01:52:29.228Z,100535.22
2022-07-31T01:54:59.827Z,100533.94
2022-07-31T01:57:32.592Z,100527.81
2022-07-31T02:00:33.272Z,100532.50
2022-07-31T02:02:58.729Z,100533.22
2022-07-31T02:05:39.930Z,100536.00
2022-07-31T02:08:10.484Z,100532.41
2022-07-31T02:10:41.711Z,100527.97
2022-07-31T02:13:12.527Z,100529.41
2022-07-31T02:15:43.571Z,100532.03
2022-07-31T02:18:13.329Z,100523.53
2022-07-31T02:20:51.992Z,100525.06
2022-07-31T02:23:19.925Z,100521.94
2022-07-31T02:25:49.217Z,100519.41
2022-07-31T02:28:20.412Z,100516.78
2022-07-31T02:30:52.907Z,100508.03
2022-07-31T02:33:23.805Z,100516.00
2022-07-31T02:35:56.433Z,100514.34
2022-07-31T02:38:27.513Z,100510.94
2022-07-31T02:40:59.845Z,100517.28
2022-07-31T02:43:32.028Z,100510.34
2022-07-31T02:46:07.225Z,100512.63
2022-07-31T02:48:37.183Z,100514.22
2022-07-31T02:51:09.647Z,100506.13
2022-07-31T02:53:38.850Z,100504.78
2022-07-31T02:56:10.978Z,100505.03
2022-07-31T02:58:42.239Z,100496.59
2022-07-31T03:01:18.713Z,100494.63
2022-07-31T03:03:47.525Z,100495.72
2022-07-31T03:06:16.348Z,100495.72
2022-07-31T03:08:44.579Z,100501.00
2022-07-31T03:11:15.407Z,100496.72
2022-07-31T03:13:44.677Z,100509.03
2022-07-31T03:16:14.202Z,100502.13
2022-07-31T03:18:44.703Z,100512.44
2022-07-31T03:21:14.487Z,100513.66
2022-07-31T03:23:43.498Z,100506.88
2022-07-31T03:26:18.942Z,100509.22
2022-07-31T03:28:47.061Z,100508.13
2022-07-31T03:31:15.069Z,100504.56
2022-07-31T03:33:44.681Z,100501.72
2022-07-31T03:36:15.046Z,100508.56
2022-07-31T03:38:46.471Z,100506.66
2022-07-31T03:41:26.012Z,100502.31
2022-07-31T03:43:54.932Z,100503.59
2022-07-31T03:46:25.086Z,100502.31
2022-07-31T03:48:56.120Z,100502.56
2022-07-31T03:51:27.952Z,100499.75
2022-07-31T03:53:56.205Z,100504.59
2022-07-31T03:56:54.610Z,100500.91
2022-07-31T03:59:24.384Z,100514.28
2022-07-31T04:01:57.641Z,100513.66
2022-07-31T04:04:46.904Z,100505.44
2022-07-31T04:07:15.380Z,100505.56
2022-07-31T04:09:43.306Z,100517.38
2022-07-31T04:12:12.934Z,100509.41
2022-07-31T04:14:41.649Z,100513.31
2022-07-31T04:17:10.384Z,100509.34
2022-07-31T04:19:39.392Z,100511.53
2022-07-31T04:22:09.642Z,100515.72
2022-07-31T04:24:39.467Z,100520.03
2022-07-31T04:27:27.727Z,100518.59
2022-07-31T04:29:57.227Z,100521.13
2022-07-31T04:32:25.883Z,100516.69
2022-07-31T04:34:59.056Z,100518.34
2022-07-31T04:37:28.458Z,100513.66
2022-07-31T04:39:57.376Z,100514.41
2022-07-31T04:42:26.241Z,100519.91
2022-07-31T04:44:54.514Z,100514.84
2022-07-31T04:47:22.762Z,100523.50
2022-07-31T04:49:52.479Z,100525.19
2022-07-31T04:52:20.511Z,100525.19
2022-07-31T04:54:52.234Z,100528.56
2022-07-31T04:57:22.146Z,100524.25
2022-07-31T04:59:59.933Z,100524.50
2022-07-31T05:02:29.719Z,100523.41
2022-07-31T05:04:58.404Z,100530.72
2022-07-31T05:07:32.778Z,100520.88
2022-07-31T05:10:07.169Z,100519.91
2022-07-31T05:12:36.739Z,100526.16
2022-07-31T05:15:05.168Z,100524.84
2022-07-31T05:17:33.448Z,100531.31
2022-07-31T05:20:20.833Z,100536.69
2022-07-31T05:23:12.162Z,100534.13
2022-07-31T05:25:53.159Z,100532.66
2022-07-31T05:28:27.151Z,100535.94
2022-07-31T05:30:59.284Z,100541.44
2022-07-31T05:33:29.421Z,100541.09
2022-07-31T05:35:58.804Z,100543.47
2022-07-31T05:38:26.733Z,100538.91
2022-07-31T05:41:15.141Z,100544.78
2022-07-31T05:44:18.478Z,100541.28
2022-07-31T05:46:48.017Z,100534.06
2022-07-31T05:49:16.429Z,100538.25
2022-07-31T05:51:47.198Z,100536.69
2022-07-31T05:54:15.416Z,100534.31
2022-07-31T05:57:03.431Z,100531.94
2022-07-31T05:59:40.234Z,100531.81
2022-07-31T06:02:08.784Z,100529.94
2022-07-31T06:04:58.510Z,100529.91
2022-07-31T06:07:28.943Z,100523.81
2022-07-31T06:09:57.947Z,100525.44
2022-07-31T06:12:27.455Z,100525.09
2022-07-31T06:14:55.444Z,100527.34
2022-07-31T06:17:49.468Z,100532.34
2022-07-31T06:20:26.408Z,100533.19
2022-07-31T06:22:54.869Z,100526.22
2022-07-31T06:25:31.793Z,100528.75
2022-07-31T06:28:04.188Z,100533.53
2022-07-31T06:30:38.374Z,100544.81
2022-07-31T06:33:08.341Z,100543.81
2022-07-31T06:35:37.298Z,100539.91
2022-07-31T06:38:37.409Z,100547.31
2022-07-31T06:41:43.045Z,100545.50
2022-07-31T06:44:31.819Z,100545.66
2022-07-31T06:47:22.029Z,100540.03
2022-07-31T06:50:09.753Z,100544.38
2022-07-31T06:52:47.097Z,100543.97
2022-07-31T06:55:15.372Z,100545.94
2022-07-31T06:57:43.617Z,100546.91
2022-07-31T07:00:20.307Z,100545.66
2022-07-31T07:02:50.075Z,100540.88
2022-07-31T07:05:18.756Z,100536.69
2022-07-31T07:07:51.387Z,100549.44
2022-07-31T07:10:19.620Z,100542.22
2022-07-31T07:13:00.782Z,100543.13
2022-07-31T07:15:35.363Z,100539.63
2022-07-31T07:18:03.617Z,100535.16
2022-07-31T07:20:45.686Z,100533.78
2022-07-31T07:23:14.376Z,100529.94
2022-07-31T07:26:03.138Z,100527.47
2022-07-31T07:28:33.409Z,100527.75
2022-07-31T07:31:05.717Z,100528.53
2022-07-31T07:33:41.335Z,100527.00
2022-07-31T07:36:23.410Z,100519.13
2022-07-31T07:39:19.047Z,100520.72
2022-07-31T07:41:48.207Z,100512.22
2022-07-31T07:44:16.337Z,100507.22
2022-07-31T07:46:46.455Z,100507.50
2022-07-31T07:49:18.608Z,100508.28
2022-07-31T07:52:08.909Z,100504.00
2022-07-31T07:54:40.490Z,100510.19
2022-07-31T07:57:37.988Z,100502.25
2022-07-31T08:00:25.929Z,100508.56
2022-07-31T08:03:49.496Z,100492.25
2022-07-31T08:05:52.712Z,100496.28
2022-07-31T08:08:22.666Z,100502.53
2022-07-31T08:10:51.422Z,100491.16
2022-07-31T08:13:41.014Z,100492.22
2022-07-31T08:16:21.857Z,100482.97
2022-07-31T08:18:55.509Z,100480.66
2022-07-31T08:21:23.790Z,100485.09
2022-07-31T08:23:52.755Z,100476.66
2022-07-31T08:26:21.561Z,100478.56
2022-07-31T08:28:51.267Z,100474.63
2022-07-31T08:31:23.618Z,100478.31
2022-07-31T08:34:11.564Z,100474.81
2022-07-31T08:37:00.016Z,100471.97
2022-07-31T08:39:49.478Z,100467.16
2022-07-31T08:42:18.451Z,100470.50
2022-07-31T08:44:47.118Z,100467.50
2022-07-31T08:47:19.775Z,100458.19
2022-07-31T08:49:51.643Z,100465.09
2022-07-31T08:52:21.623Z,100464.44
2022-07-31T08:55:08.785Z,100457.63
2022-07-31T08:57:37.472Z,100461.66
2022-07-31T09:00:07.281Z,100449.38
2022-07-31T09:02:35.465Z,100452.97
2022-07-31T09:05:43.456Z,100451.59
2022-07-31T09:08:14.703Z,100448.69
2022-07-31T09:10:49.912Z,100446.88
2022-07-31T09:13:19.907Z,100448.00
2022-07-31T09:15:52.604Z,100439.41
2022-07-31T09:18:24.846Z,100439.72
2022-07-31T09:21:15.458Z,100439.38
2022-07-31T09:23:47.688Z,100433.59
2022-07-31T09:26:16.624Z,100426.34
2022-07-31T09:28:46.598Z,100423.94
2022-07-31T09:31:14.959Z,100425.00
2022-07-31T09:34:06.853Z,100422.44
2022-07-31T09:36:36.485Z,100418.94
2022-07-31T09:39:27.009Z,100416.91
2022-07-31T09:42:16.587Z,100414.28
2022-07-31T09:44:53.761Z,100414.75
2022-07-31T09:47:23.259Z,100412.91
2022-07-31T09:49:56.654Z,100420.53
2022-07-31T09:52:29.067Z,100422.25
2022-07-31T09:55:14.259Z,100405.59
2022-07-31T09:57:54.468Z,100410.34
2022-07-31T10:00:24.701Z,100402.75
2022-07-31T10:02:57.906Z,100406.84
2022-07-31T10:05:28.862Z,100401.69
2022-07-31T10:08:02.643Z,100402.50
2022-07-31T10:10:55.690Z,100394.72
2022-07-31T10:13:55.795Z,100399.47
2022-07-31T10:16:27.358Z,100395.56
2022-07-31T10:19:01.105Z,100389.50
2022-07-31T10:21:42.159Z,100384.50
2022-07-31T10:24:28.315Z,100373.44
2022-07-31T10:27:01.551Z,100375.91
2022-07-31T10:29:41.046Z,100374.59
2022-07-31T10:32:10.794Z,100363.41
2022-07-31T10:35:01.990Z,100359.22
2022-07-31T10:37:58.997Z,100361.22
2022-07-31T10:41:22.256Z,100351.91
2022-07-31T10:43:56.948Z,100347.31
2022-07-31T10:46:41.290Z,100342.31
2022-07-31T10:49:48.899Z,100347.56
2022-07-31T10:52:43.088Z,100331.97
2022-07-31T10:55:19.366Z,100319.38
2022-07-31T10:58:11.682Z,100323.50
2022-07-31T11:01:06.677Z,100323.72
2022-07-31T11:03:46.698Z,100312.56
2022-07-31T11:06:41.613Z,100308.88
2022-07-31T11:09:30.836Z,100295.56
2022-07-31T11:12:18.587Z,100293.66
2022-07-31T11:15:23.005Z,100285.88
2022-07-31T11:18:33.943Z,100284.66
2022-07-31T11:21:28.837Z,100274.56
2022-07-31T11:24:02.292Z,100281.75
2022-07-31T11:26:41.997Z,100285.78
2022-07-31T11:30:00.870Z,100287.50
2022-07-31T11:32:15.490Z,100285.84
2022-07-31T11:34:48.691Z,100285.72
2022-07-31T11:37:22.829Z,100289.41
2022-07-31T11:39:52.765Z,100281.84
2022-07-31T11:42:26.573Z,100284.59
2022-07-31T11:45:08.353Z,100285.38
2022-07-31T11:48:12.522Z,100276.47
2022-07-31T11:50:32.397Z,100274.31
2022-07-31T11:53:04.461Z,100264.72
2022-07-31T11:55:33.017Z,100256.38
2022-07-31T11:58:01.078Z,100250.38
2022-07-31T12:00:32.798Z,100261.00
2022-07-31T12:03:02.953Z,100254.50
2022-07-31T12:05:37.624Z,100252.44
2022-07-31T12:08:12.799Z,100245.66
2022-07-31T12:10:41.694Z,100232.69
2022-07-31T12:13:16.154Z,100229.94
2022-07-31T12:15:58.276Z,100238.34
2022-07-31T12:18:30.217Z,100228.19
2022-07-31T12:21:00.238Z,100224.69
2022-07-31T12:23:40.834Z,100216.94
2022-07-31T12:26:11.718Z,100217.66
2022-07-31T12:28:39.761Z,100213.50
2022-07-31T12:31:07.780Z,100200.56
2022-07-31T12:33:44.328Z,100202.94
2022-07-31T12:36:17.261Z,100199.03
2022-07-31T12:38:48.273Z,100201.66
2022-07-31T12:41:18.394Z,100195.25
2022-07-31T12:43:51.466Z,100188.88
2022-07-31T12:46:22.134Z,100185.63
2022-07-31T12:48:51.887Z,100197.38
2022-07-31T12:51:44.129Z,100186.75
2022-07-31T12:54:10.920Z,100187.72
2022-07-31T12:56:40.575Z,100185.03
2022-07-31T12:59:09.549Z,100185.28
2022-07-31T13:01:38.455Z,100178.50
2022-07-31T13:04:19.128Z,100176.56
2022-07-31T13:06:51.379Z,100181.22
2022-07-31T13:09:20.258Z,100179.88
2022-07-31T13:11:49.912Z,100167.63
2022-07-31T13:14:21.800Z,100163.31
2022-07-31T13:16:53.404Z,100162.88
2022-07-31T13:19:23.804Z,100162.78
2022-07-31T13:21:51.956Z,100164.53
2022-07-31T13:24:24.771Z,100163.34
2022-07-31T13:26:53.722Z,100160.19
2022-07-31T13:29:21.697Z,100146.66
2022-07-31T13:31:50.126Z,100153.97
2022-07-31T13:34:18.233Z,100149.38
2022-07-31T13:36:47.960Z,100153.38
2022-07-31T13:39:16.380Z,100147.06
2022-07-31T13:41:44.459Z,100134.75
2022-07-31T13:44:13.321Z,100133.06
2022-07-31T13:46:41.676Z,100134.47
2022-07-31T13:49:10.509Z,100142.53
2022-07-31T13:51:39.629Z,100140.78
2022-07-31T13:54:09.426Z,100135.50
2022-07-31T13:56:42.969Z,100131.88
2022-07-31T13:59:13.591Z,100135.81
2022-07-31T14:02:03.062Z,100123.19
2022-07-31T14:04:32.900Z,100126.84
2022-07-31T14:07:07.641Z,100127.78
2022-07-31T14:09:37.984Z,100115.88
2022-07-31T14:12:06.703Z,100108.63
2022-07-31T14:14:35.352Z,100112.78
2022-07-31T14:17:05.072Z,100113.13
2022-07-31T14:19:44.096Z,100115.31
2022-07-31T14:22:14.161Z,100103.28
2022-07-31T14:24:50.703Z,100100.84
2022-07-31T14:27:20.961Z,100099.00
2022-07-31T14:29:49.652Z,100107.03
2022-07-31T14:32:19.619Z,100109.47
2022-07-31T14:34:47.968Z,100108.25
2022-07-31T14:37:16.065Z,100107.31
2022-07-31T14:39:45.486Z,100093.25
2022-07-31T14:42:13.770Z,100104.94
2022-07-31T14:44:42.806Z,100098.72
2022-07-31T14:47:11.324Z,100091.94
2022-07-31T14:50:07.860Z,100094.44
2022-07-31T14:52:28.510Z,100086.56
2022-07-31T14:54:58.642Z,100097.59
2022-07-31T14:57:31.404Z,100096.81
2022-07-31T14:59:59.717Z,100091.78
2022-07-31T15:02:27.860Z,100096.41
2022-07-31T15:04:56.697Z,100095.13
2022-07-31T15:07:46.256Z,100098.56
2022-07-31T15:10:14.978Z,100088.00
2022-07-31T15:12:45.867Z,100093.25
2022-07-31T15:15:13.963Z,100088.38
2022-07-31T15:17:41.857Z,100085.94
2022-07-31T15:20:11.564Z,100083.00
2022-07-31T15:22:39.915Z,100076.88
2022-07-31T15:25:10.185Z,100071.03
2022-07-31T15:27:39.956Z,100078.25
2022-07-31T15:30:09.122Z,100077.47
2022-07-31T15:32:38.738Z,100087.06
2022-07-31T15:35:09.051Z,100078.38
2022-07-31T15:37:39.833Z,100079.25
2022-07-31T15:40:10.874Z,100075.56
2022-07-31T15:42:42.841Z,100081.44
2022-07-31T15:45:14.690Z,100077.50
2022-07-31T15:47:43.496Z,100075.59
2022-07-31T15:50:14.248Z,100067.72
2022-07-31T15:52:42.683Z,100063.63
2022-07-31T15:55:11.647Z,100070.13
2022-07-31T15:57:41.168Z,100064.19
2022-07-31T16:00:12.046Z,100067.94
2022-07-31T16:02:41.600Z,100058.81
2022-07-31T16:05:21.939Z,100061.47
2022-07-31T16:08:32.746Z,100067.97
2022-07-31T16:10:52.499Z,100059.31
2022-07-31T16:13:24.234Z,100067.06
2022-07-31T16:15:54.834Z,100054.97
2022-07-31T16:18:22.721Z,100061.88
2022-07-31T16:20:50.793Z,100057.31
2022-07-31T16:23:18.965Z,100052.84
2022-07-31T16:25:47.529Z,100051.66
2022-07-31T16:28:15.484Z,100048.97
2022-07-31T16:30:45.672Z,100042.81
2022-07-31T16:33:14.020Z,100042.56
2022-07-31T16:35:42.084Z,100036.81
2022-07-31T16:38:10.441Z,100034.75
2022-07-31T16:40:38.428Z,100039.38
2022-07-31T16:43:51.029Z,100039.16
2022-07-31T16:45:58.005Z,100040.22
2022-07-31T16:48:26.723Z,100039.59
2022-07-31T16:50:55.124Z,100039.81
2022-07-31T16:54:13.550Z,100042.72
2022-07-31T16:56:12.773Z,100043.59
2022-07-31T16:58:41.310Z,100041.28
2022-07-31T17:01:58.785Z,100043.56
2022-07-31T17:04:03.127Z,100044.00
2022-07-31T17:06:36.412Z,100040.50
2022-07-31T17:09:15.302Z,100047.34
2022-07-31T17:11:47.042Z,100051.66
2022-07-31T17:14:15.517Z,100049.41
2022-07-31T17:16:48.101Z,100044.41
2022-07-31T17:19:16.868Z,100042.97
2022-07-31T17:22:05.020Z,100041.97
2022-07-31T17:24:33.131Z,100040.91
2022-07-31T17:27:00.965Z,100045.66
2022-07-31T17:29:28.845Z,100046.09
2022-07-31T17:31:58.469Z,100047.94
2022-07-31T17:34:26.689Z,100042.97
2022-07-31T17:36:55.145Z,100044.44
2022-07-31T17:39:30.199Z,100045.25
2022-07-31T17:41:59.718Z,100056.81
2022-07-31T17:44:28.252Z,100057.38
2022-07-31T17:46:57.934Z,100066.13
2022-07-31T17:49:28.794Z,100060.25
2022-07-31T17:51:58.885Z,100054.66
2022-07-31T17:54:30.365Z,100061.19
2022-07-31T17:56:58.676Z,100068.69
2022-07-31T17:59:27.304Z,100065.34
2022-07-31T18:01:59.897Z,100072.03
2022-07-31T18:04:30.125Z,100072.38
2022-07-31T18:06:58.445Z,100078.34
2022-07-31T18:09:27.320Z,100079.56
2022-07-31T18:11:56.442Z,100075.28
2022-07-31T18:14:25.100Z,100077.13
2022-07-31T18:16:53.601Z,100084.00
2022-07-31T18:19:22.636Z,100085.28
2022-07-31T18:21:53.349Z,100093.25
2022-07-31T18:24:22.668Z,100092.16
2022-07-31T18:26:51.179Z,100094.31
2022-07-31T18:29:23.175Z,100094.41
2022-07-31T18:31:51.283Z,100101.34
2022-07-31T18:34:19.442Z,100098.41
2022-07-31T18:36:52.909Z,100104.75
2022-07-31T18:39:24.800Z,100100.88
2022-07-31T18:41:52.918Z,100104.09
2022-07-31T18:44:22.024Z,100104.03
2022-07-31T18:46:56.181Z,100099.53
2022-07-31T18:51:03.014Z,100098.63
2022-07-31T18:52:12.936Z,100097.63
2022-07-31T18:54:45.692Z,100096.00
2022-07-31T18:57:14.314Z,100103.72
2022-07-31T18:59:43.136Z,100110.41
2022-07-31T19:02:12.614Z,100107.84
2022-07-31T19:04:41.058Z,100114.56
2022-07-31T19:07:09.157Z,100117.06
2022-07-31T19:09:37.362Z,100127.69
2022-07-31T19:12:08.684Z,100123.06
2022-07-31T19:14:37.451Z,100130.50
2022-07-31T19:17:05.803Z,100130.84
2022-07-31T19:19:54.396Z,100131.97
2022-07-31T19:22:22.960Z,100134.88
2022-07-31T19:24:52.661Z,100143.34
2022-07-31T19:27:22.536Z,100146.94
2022-07-31T19:30:13.666Z,100141.44
2022-07-31T19:32:41.772Z,100151.09
2022-07-31T19:35:10.375Z,100142.22
2022-07-31T19:37:38.297Z,100160.16
2022-07-31T19:40:08.666Z,100163.56
2022-07-31T19:42:39.603Z,100156.91
2022-07-31T19:45:09.221Z,100167.97
2022-07-31T19:47:37.135Z,100172.84
2022-07-31T19:50:07.494Z,100170.66
2022-07-31T19:52:36.404Z,100172.91
2022-07-31T19:55:05.391Z,100173.25
2022-07-31T19:57:33.398Z,100172.47
2022-07-31T20:00:02.763Z,100184.31
2022-07-31T20:02:32.373Z,100174.31
2022-07-31T20:05:00.537Z,100183.50
2022-07-31T20:07:32.707Z,100185.38
2022-07-31T20:10:01.819Z,100185.41
2022-07-31T20:12:29.693Z,100189.28
2022-07-31T20:14:57.873Z,100184.44
2022-07-31T20:17:27.203Z,100191.13
2022-07-31T20:20:15.129Z,100201.31
2022-07-31T20:22:43.704Z,100193.13
2022-07-31T20:25:20.512Z,100197.13
2022-07-31T20:27:49.421Z,100205.63
2022-07-31T20:30:21.901Z,100205.47
2022-07-31T20:32:52.844Z,100195.47
2022-07-31T20:35:47.149Z,100197.59
2022-07-31T20:38:15.533Z,100203.78
2022-07-31T20:40:51.151Z,100203.97
2022-07-31T20:43:23.037Z,100201.81
2022-07-31T20:45:51.852Z,100200.47
2022-07-31T20:48:24.186Z,100197.13
2022-07-31T20:50:52.831Z,100200.28
2022-07-31T20:53:22.033Z,100204.47
2022-07-31T20:55:51.415Z,100204.00
2022-07-31T20:58:19.902Z,100204.00
2022-07-31T21:00:48.932Z,100201.13
2022-07-31T21:03:17.917Z,100201.66
2022-07-31T21:05:47.982Z,100205.31
2022-07-31T21:08:16.807Z,100204.13
2022-07-31T21:10:44.968Z,100203.16
2022-07-31T21:13:13.630Z,100214.47
2022-07-31T21:15:45.054Z,100213.13
2022-07-31T21:18:15.823Z,100214.31
2022-07-31T21:20:49.806Z,100213.13
2022-07-31T21:23:23.483Z,100221.97
2022-07-31T21:25:52.185Z,100221.31
2022-07-31T21:28:20.469Z,100215.06
2022-07-31T21:30:49.083Z,100215.72
2022-07-31T21:33:18.537Z,100220.94
2022-07-31T21:35:47.312Z,100226.44
2022-07-31T21:38:16.229Z,100225.81
2022-07-31T21:40:46.734Z,100224.97
2022-07-31T21:43:16.640Z,100229.47
2022-07-31T21:45:55.396Z,100230.78
2022-07-31T21:48:25.771Z,100227.63
2022-07-31T21:50:54.848Z,100234.81
2022-07-31T21:53:23.784Z,100241.81
2022-07-31T21:55:53.069Z,100240.31
2022-07-31T21:58:22.977Z,100241.44
2022-07-31T22:00:51.972Z,100237.63
2022-07-31T22:03:20.181Z,100244.78
2022-07-31T22:06:08.090Z,100248.94
2022-07-31T22:08:36.225Z,100264.59
2022-07-31T22:11:06.864Z,100253.44
2022-07-31T22:13:36.773Z,100261.91
2022-07-31T22:16:08.859Z,100266.94
2022-07-31T22:18:37.944Z,100265.59
2022-07-31T22:21:09.191Z,100263.09
2022-07-31T22:23:37.686Z,100262.41
2022-07-31T22:26:08.113Z,100266.34
2022-07-31T22:28:36.617Z,100271.19
2022-07-31T22:31:04.663Z,100276.16
2022-07-31T22:33:32.799Z,100278.94
2022-07-31T22:36:02.624Z,100277.22
2022-07-31T22:38:31.765Z,100282.22
2022-07-31T22:41:00.103Z,100277.00
2022-07-31T22:44:10.795Z,100280.97
2022-07-31T22:46:20.311Z,100290.09
2022-07-31T22:48:49.151Z,100288.72
2022-07-31T22:51:18.700Z,100283.63
2022-07-31T22:53:50.336Z,100295.28
2022-07-31T22:56:19.355Z,100298.75
2022-07-31T22:58:52.664Z,100299.78
2022-07-31T23:01:21.444Z,100305.22
2022-07-31T23:03:49.398Z,100310.19
2022-07-31T23:06:31.688Z,100313.16
2022-07-31T23:09:01.355Z,100310.19
2022-07-31T23:11:29.673Z,100318.41
2022-07-31T23:13:59.780Z,100325.28
2022-07-31T23:16:28.050Z,100319.19
2022-07-31T23:18:56.105Z,100323.22
2022-07-31T23:21:24.110Z,100329.09
2022-07-31T23:23:52.914Z,100338.66
2022-07-31T23:26:23.874Z,100326.75
2022-07-31T23:28:53.212Z,100333.09
2022-07-31T23:31:23.569Z,100324.19
2022-07-31T23:33:52.007Z,100329.47
2022-07-31T23:36:20.488Z,100329.38
2022-07-31T23:38:48.542Z,100335.59
2022-07-31T23:41:36.487Z,100331.34
2022-07-31T23:44:03.889Z,100324.06
2022-07-31T23:46:34.226Z,100324.16
2022-07-31T23:49:02.543Z,100319.44
2022-07-31T23:51:30.876Z,100321.63
2022-07-31T23:53:58.710Z,100318.91
2022-07-31T23:56:26.680Z,100322.63
2022-07-31T23:58:54.601Z,100324.81
